sensor_id;sensor_type;location;lat;lon;timestamp;temperature;humidity
61016;DHT22;46902;52.920;6.536;2022-10-31T00:02:00;13.30;99.90
61016;DHT22;46902;52.920;6.536;2022-10-31T00:04:26;13.20;99.90
61016;DHT22;46902;52.920;6.536;2022-10-31T00:06:51;13.20;99.90
61016;DHT22;46902;52.920;6.536;2022-10-31T00:09:17;13.20;99.90
61016;DHT22;46902;52.920;6.536;2022-10-31T00:11:42;13.10;99.90
61016;DHT22;46902;52.920;6.536;2022-10-31T00:14:08;13.10;99.90
61016;DHT22;46902;52.920;6.536;2022-10-31T00:16:33;13.10;99.90
61016;DHT22;46902;52.920;6.536;2022-10-31T00:19:02;13.10;99.90
61016;DHT22;46902;52.920;6.536;2022-10-31T00:21:29;13.10;99.90
61016;DHT22;46902;52.920;6.536;2022-10-31T00:23:54;13.00;99.90
61016;DHT22;46902;52.920;6.536;2022-10-31T00:26:20;13.00;99.90
61016;DHT22;46902;52.920;6.536;2022-10-31T00:28:46;13.00;99.90
61016;DHT22;46902;52.920;6.536;2022-10-31T00:31:13;13.00;99.90
61016;DHT22;46902;52.920;6.536;2022-10-31T00:33:39;13.00;99.90
61016;DHT22;46902;52.920;6.536;2022-10-31T00:36:07;13.00;99.90
61016;DHT22;46902;52.920;6.536;2022-10-31T00:38:33;12.90;99.90
61016;DHT22;46902;52.920;6.536;2022-10-31T00:40:58;12.90;99.90
61016;DHT22;46902;52.920;6.536;2022-10-31T00:43:24;12.90;99.90
61016;DHT22;46902;52.920;6.536;2022-10-31T00:45:50;12.90;99.90
61016;DHT22;46902;52.920;6.536;2022-10-31T00:48:15;12.90;99.90
61016;DHT22;46902;52.920;6.536;2022-10-31T00:50:41;12.90;99.90
61016;DHT22;46902;52.920;6.536;2022-10-31T00:53:07;12.90;99.90
61016;DHT22;46902;52.920;6.536;2022-10-31T00:55:33;12.80;99.90
61016;DHT22;46902;52.920;6.536;2022-10-31T00:57:58;12.80;99.90
61016;DHT22;46902;52.920;6.536;2022-10-31T01:00:24;12.80;99.90
61016;DHT22;46902;52.920;6.536;2022-10-31T01:02:50;12.70;99.90
61016;DHT22;46902;52.920;6.536;2022-10-31T01:05:15;12.70;99.90
61016;DHT22;46902;52.920;6.536;2022-10-31T01:07:41;12.70;99.90
61016;DHT22;46902;52.920;6.536;2022-10-31T01:10:08;12.70;99.90
61016;DHT22;46902;52.920;6.536;2022-10-31T01:12:43;12.60;99.90
61016;DHT22;46902;52.920;6.536;2022-10-31T01:15:10;12.60;99.90
61016;DHT22;46902;52.920;6.536;2022-10-31T01:17:36;12.60;99.90
61016;DHT22;46902;52.920;6.536;2022-10-31T01:20:03;12.60;99.90
61016;DHT22;46902;52.920;6.536;2022-10-31T01:22:29;12.60;99.90
61016;DHT22;46902;52.920;6.536;2022-10-31T01:24:54;12.60;99.90
61016;DHT22;46902;52.920;6.536;2022-10-31T01:27:20;12.60;99.90
61016;DHT22;46902;52.920;6.536;2022-10-31T01:29:45;12.60;99.90
61016;DHT22;46902;52.920;6.536;2022-10-31T01:32:11;12.50;99.90
61016;DHT22;46902;52.920;6.536;2022-10-31T01:34:36;12.50;99.90
61016;DHT22;46902;52.920;6.536;2022-10-31T01:37:02;12.50;99.90
61016;DHT22;46902;52.920;6.536;2022-10-31T01:39:27;12.50;99.90
61016;DHT22;46902;52.920;6.536;2022-10-31T01:41:55;12.50;99.90
61016;DHT22;46902;52.920;6.536;2022-10-31T01:49:38;12.50;99.90
61016;DHT22;46902;52.920;6.536;2022-10-31T01:52:26;12.50;99.90
61016;DHT22;46902;52.920;6.536;2022-10-31T01:55:23;12.50;99.90
61016;DHT22;46902;52.920;6.536;2022-10-31T01:57:48;12.40;99.90
61016;DHT22;46902;52.920;6.536;2022-10-31T02:00:15;12.40;99.90
61016;DHT22;46902;52.920;6.536;2022-10-31T02:02:42;12.40;99.90
61016;DHT22;46902;52.920;6.536;2022-10-31T02:05:10;12.30;99.90
61016;DHT22;46902;52.920;6.536;2022-10-31T02:07:43;12.30;99.90
61016;DHT22;46902;52.920;6.536;2022-10-31T02:10:10;12.30;99.90
61016;DHT22;46902;52.920;6.536;2022-10-31T02:12:35;12.30;99.90
61016;DHT22;46902;52.920;6.536;2022-10-31T02:15:04;12.20;99.90
61016;DHT22;46902;52.920;6.536;2022-10-31T02:17:30;12.20;99.90
61016;DHT22;46902;52.920;6.536;2022-10-31T02:20:10;12.20;99.90
61016;DHT22;46902;52.920;6.536;2022-10-31T02:25:51;12.20;99.90
61016;DHT22;46902;52.920;6.536;2022-10-31T02:28:52;12.20;99.90
61016;DHT22;46902;52.920;6.536;2022-10-31T02:34:01;12.20;99.90
61016;DHT22;46902;52.920;6.536;2022-10-31T02:45:00;12.00;99.90
61016;DHT22;46902;52.920;6.536;2022-10-31T02:47:29;12.00;99.90
61016;DHT22;46902;52.920;6.536;2022-10-31T02:50:01;12.00;99.90
61016;DHT22;46902;52.920;6.536;2022-10-31T02:52:29;12.00;99.90
61016;DHT22;46902;52.920;6.536;2022-10-31T02:54:55;11.90;99.90
61016;DHT22;46902;52.920;6.536;2022-10-31T02:57:33;11.90;99.90
61016;DHT22;46902;52.920;6.536;2022-10-31T03:00:05;11.90;99.90
61016;DHT22;46902;52.920;6.536;2022-10-31T03:06:14;11.90;99.90
61016;DHT22;46902;52.920;6.536;2022-10-31T03:08:50;11.80;99.90
61016;DHT22;46902;52.920;6.536;2022-10-31T03:11:23;11.80;99.90
61016;DHT22;46902;52.920;6.536;2022-10-31T03:13:52;11.70;99.90
61016;DHT22;46902;52.920;6.536;2022-10-31T03:16:43;11.70;99.90
61016;DHT22;46902;52.920;6.536;2022-10-31T03:19:18;11.60;99.90
61016;DHT22;46902;52.920;6.536;2022-10-31T03:21:47;11.60;99.90
61016;DHT22;46902;52.920;6.536;2022-10-31T03:24:15;11.60;99.90
61016;DHT22;46902;52.920;6.536;2022-10-31T03:26:44;11.60;99.90
61016;DHT22;46902;52.920;6.536;2022-10-31T03:29:14;11.50;99.90
61016;DHT22;46902;52.920;6.536;2022-10-31T03:31:51;11.50;99.90
61016;DHT22;46902;52.920;6.536;2022-10-31T03:34:19;11.50;99.90
61016;DHT22;46902;52.920;6.536;2022-10-31T03:36:48;11.50;99.90
61016;DHT22;46902;52.920;6.536;2022-10-31T03:39:16;11.40;99.90
61016;DHT22;46902;52.920;6.536;2022-10-31T03:41:45;11.40;99.90
61016;DHT22;46902;52.920;6.536;2022-10-31T03:44:14;11.40;99.90
61016;DHT22;46902;52.920;6.536;2022-10-31T03:46:43;11.40;99.90
61016;DHT22;46902;52.920;6.536;2022-10-31T03:49:09;11.40;99.90
61016;DHT22;46902;52.920;6.536;2022-10-31T03:51:49;11.40;99.90
61016;DHT22;46902;52.920;6.536;2022-10-31T03:54:25;11.30;99.90
61016;DHT22;46902;52.920;6.536;2022-10-31T03:56:56;11.30;99.90
61016;DHT22;46902;52.920;6.536;2022-10-31T03:59:32;11.30;99.90
61016;DHT22;46902;52.920;6.536;2022-10-31T04:02:02;11.30;99.90
61016;DHT22;46902;52.920;6.536;2022-10-31T04:04:29;11.30;99.90
61016;DHT22;46902;52.920;6.536;2022-10-31T04:06:56;11.20;99.90
61016;DHT22;46902;52.920;6.536;2022-10-31T04:09:26;11.20;99.90
61016;DHT22;46902;52.920;6.536;2022-10-31T04:11:54;11.20;99.90
61016;DHT22;46902;52.920;6.536;2022-10-31T04:14:22;11.20;99.90
61016;DHT22;46902;52.920;6.536;2022-10-31T04:16:49;11.20;99.90
61016;DHT22;46902;52.920;6.536;2022-10-31T04:19:15;11.20;99.90
61016;DHT22;46902;52.920;6.536;2022-10-31T04:21:41;11.10;99.90
61016;DHT22;46902;52.920;6.536;2022-10-31T04:24:09;11.20;99.90
61016;DHT22;46902;52.920;6.536;2022-10-31T04:26:34;11.10;99.90
61016;DHT22;46902;52.920;6.536;2022-10-31T04:29:00;11.10;99.90
61016;DHT22;46902;52.920;6.536;2022-10-31T04:31:26;11.10;99.90
61016;DHT22;46902;52.920;6.536;2022-10-31T04:33:52;11.10;99.90
61016;DHT22;46902;52.920;6.536;2022-10-31T04:36:17;11.10;99.90
61016;DHT22;46902;52.920;6.536;2022-10-31T04:38:43;11.10;99.90
61016;DHT22;46902;52.920;6.536;2022-10-31T04:41:09;11.10;99.90
61016;DHT22;46902;52.920;6.536;2022-10-31T04:43:34;11.00;99.90
61016;DHT22;46902;52.920;6.536;2022-10-31T04:46:00;11.00;99.90
61016;DHT22;46902;52.920;6.536;2022-10-31T04:48:26;11.00;99.90
61016;DHT22;46902;52.920;6.536;2022-10-31T04:50:51;11.00;99.90
61016;DHT22;46902;52.920;6.536;2022-10-31T04:53:17;11.00;99.90
61016;DHT22;46902;52.920;6.536;2022-10-31T04:55:42;11.00;99.90
61016;DHT22;46902;52.920;6.536;2022-10-31T04:58:08;10.90;99.90
61016;DHT22;46902;52.920;6.536;2022-10-31T05:00:33;10.90;99.90
61016;DHT22;46902;52.920;6.536;2022-10-31T05:02:59;10.90;99.90
61016;DHT22;46902;52.920;6.536;2022-10-31T05:05:28;10.80;99.90
61016;DHT22;46902;52.920;6.536;2022-10-31T05:07:55;10.80;99.90
61016;DHT22;46902;52.920;6.536;2022-10-31T05:10:23;10.70;99.90
61016;DHT22;46902;52.920;6.536;2022-10-31T05:12:51;10.70;99.90
61016;DHT22;46902;52.920;6.536;2022-10-31T05:15:20;10.70;99.90
61016;DHT22;46902;52.920;6.536;2022-10-31T05:17:47;10.60;99.90
61016;DHT22;46902;52.920;6.536;2022-10-31T05:20:14;10.60;99.90
61016;DHT22;46902;52.920;6.536;2022-10-31T05:22:51;10.60;99.90
61016;DHT22;46902;52.920;6.536;2022-10-31T05:25:17;10.60;99.90
61016;DHT22;46902;52.920;6.536;2022-10-31T05:27:45;10.60;99.90
61016;DHT22;46902;52.920;6.536;2022-10-31T05:30:13;10.60;99.90
61016;DHT22;46902;52.920;6.536;2022-10-31T05:32:43;10.60;99.90
61016;DHT22;46902;52.920;6.536;2022-10-31T05:35:11;10.70;99.90
61016;DHT22;46902;52.920;6.536;2022-10-31T05:37:38;10.70;99.90
61016;DHT22;46902;52.920;6.536;2022-10-31T05:40:05;10.60;99.90
61016;DHT22;46902;52.920;6.536;2022-10-31T05:42:31;10.60;99.90
61016;DHT22;46902;52.920;6.536;2022-10-31T05:44:57;10.60;99.90
61016;DHT22;46902;52.920;6.536;2022-10-31T05:47:22;10.60;99.90
61016;DHT22;46902;52.920;6.536;2022-10-31T05:49:48;10.50;99.90
61016;DHT22;46902;52.920;6.536;2022-10-31T05:52:14;10.50;99.90
61016;DHT22;46902;52.920;6.536;2022-10-31T05:54:39;10.50;99.90
61016;DHT22;46902;52.920;6.536;2022-10-31T05:57:05;10.40;99.90
61016;DHT22;46902;52.920;6.536;2022-10-31T05:59:31;10.40;99.90
61016;DHT22;46902;52.920;6.536;2022-10-31T06:01:57;10.40;99.90
61016;DHT22;46902;52.920;6.536;2022-10-31T06:04:22;10.30;99.90
61016;DHT22;46902;52.920;6.536;2022-10-31T06:06:48;10.40;99.90
61016;DHT22;46902;52.920;6.536;2022-10-31T06:09:14;10.40;99.90
61016;DHT22;46902;52.920;6.536;2022-10-31T06:11:39;10.40;99.90
61016;DHT22;46902;52.920;6.536;2022-10-31T06:14:05;10.40;99.90
61016;DHT22;46902;52.920;6.536;2022-10-31T06:16:31;10.40;99.90
61016;DHT22;46902;52.920;6.536;2022-10-31T06:18:56;10.30;99.90
61016;DHT22;46902;52.920;6.536;2022-10-31T06:21:22;10.30;99.90
61016;DHT22;46902;52.920;6.536;2022-10-31T06:23:47;10.30;99.90
61016;DHT22;46902;52.920;6.536;2022-10-31T06:26:13;10.20;99.90
61016;DHT22;46902;52.920;6.536;2022-10-31T06:28:38;10.20;99.90
61016;DHT22;46902;52.920;6.536;2022-10-31T06:31:04;10.20;99.90
61016;DHT22;46902;52.920;6.536;2022-10-31T06:33:30;10.20;99.90
61016;DHT22;46902;52.920;6.536;2022-10-31T06:35:55;10.20;99.90
61016;DHT22;46902;52.920;6.536;2022-10-31T06:38:21;10.20;99.90
61016;DHT22;46902;52.920;6.536;2022-10-31T06:40:46;10.20;99.90
61016;DHT22;46902;52.920;6.536;2022-10-31T06:43:12;10.20;99.90
61016;DHT22;46902;52.920;6.536;2022-10-31T06:45:39;10.20;99.90
61016;DHT22;46902;52.920;6.536;2022-10-31T06:48:05;10.20;99.90
61016;DHT22;46902;52.920;6.536;2022-10-31T06:50:31;10.30;99.90
61016;DHT22;46902;52.920;6.536;2022-10-31T06:52:57;10.20;99.90
61016;DHT22;46902;52.920;6.536;2022-10-31T06:55:24;10.20;99.90
61016;DHT22;46902;52.920;6.536;2022-10-31T07:00:17;10.20;99.90
61016;DHT22;46902;52.920;6.536;2022-10-31T07:02:42;10.20;99.90
61016;DHT22;46902;52.920;6.536;2022-10-31T07:05:08;10.20;99.90
61016;DHT22;46902;52.920;6.536;2022-10-31T07:07:33;10.20;99.90
61016;DHT22;46902;52.920;6.536;2022-10-31T07:09:59;10.20;99.90
61016;DHT22;46902;52.920;6.536;2022-10-31T07:12:24;10.20;99.90
61016;DHT22;46902;52.920;6.536;2022-10-31T07:14:50;10.20;99.90
61016;DHT22;46902;52.920;6.536;2022-10-31T07:17:15;10.20;99.90
61016;DHT22;46902;52.920;6.536;2022-10-31T07:19:41;10.30;99.90
61016;DHT22;46902;52.920;6.536;2022-10-31T07:22:06;10.30;99.90
61016;DHT22;46902;52.920;6.536;2022-10-31T07:24:32;10.30;99.90
61016;DHT22;46902;52.920;6.536;2022-10-31T07:26:57;10.30;99.90
61016;DHT22;46902;52.920;6.536;2022-10-31T07:29:23;10.30;99.90
61016;DHT22;46902;52.920;6.536;2022-10-31T07:31:48;10.40;99.90
61016;DHT22;46902;52.920;6.536;2022-10-31T07:34:14;10.40;99.90
61016;DHT22;46902;52.920;6.536;2022-10-31T07:36:39;10.40;99.90
61016;DHT22;46902;52.920;6.536;2022-10-31T07:39:05;10.50;99.90
61016;DHT22;46902;52.920;6.536;2022-10-31T07:41:31;10.50;99.90
61016;DHT22;46902;52.920;6.536;2022-10-31T07:43:56;10.50;99.90
61016;DHT22;46902;52.920;6.536;2022-10-31T07:46:22;10.60;99.90
61016;DHT22;46902;52.920;6.536;2022-10-31T07:48:47;10.60;99.90
61016;DHT22;46902;52.920;6.536;2022-10-31T07:51:13;10.70;99.90
61016;DHT22;46902;52.920;6.536;2022-10-31T07:53:38;10.70;99.90
61016;DHT22;46902;52.920;6.536;2022-10-31T07:56:04;10.80;99.90
61016;DHT22;46902;52.920;6.536;2022-10-31T07:58:30;10.80;99.90
61016;DHT22;46902;52.920;6.536;2022-10-31T08:00:57;10.90;99.90
61016;DHT22;46902;52.920;6.536;2022-10-31T08:03:23;10.90;99.90
61016;DHT22;46902;52.920;6.536;2022-10-31T08:05:48;10.90;99.90
61016;DHT22;46902;52.920;6.536;2022-10-31T08:08:14;11.00;99.90
61016;DHT22;46902;52.920;6.536;2022-10-31T08:10:40;11.10;99.90
61016;DHT22;46902;52.920;6.536;2022-10-31T08:13:11;11.10;99.90
61016;DHT22;46902;52.920;6.536;2022-10-31T08:15:37;11.20;99.90
61016;DHT22;46902;52.920;6.536;2022-10-31T08:18:13;11.20;99.90
61016;DHT22;46902;52.920;6.536;2022-10-31T08:20:40;11.30;99.90
61016;DHT22;46902;52.920;6.536;2022-10-31T08:23:05;11.40;99.90
61016;DHT22;46902;52.920;6.536;2022-10-31T08:25:32;11.50;99.90
61016;DHT22;46902;52.920;6.536;2022-10-31T08:27:58;11.50;99.90
61016;DHT22;46902;52.920;6.536;2022-10-31T08:30:27;11.60;99.90
61016;DHT22;46902;52.920;6.536;2022-10-31T08:35:27;11.80;99.90
61016;DHT22;46902;52.920;6.536;2022-10-31T08:37:54;11.80;99.90
61016;DHT22;46902;52.920;6.536;2022-10-31T08:40:20;11.90;99.90
61016;DHT22;46902;52.920;6.536;2022-10-31T08:42:46;12.00;99.90
61016;DHT22;46902;52.920;6.536;2022-10-31T08:45:11;12.10;99.90
61016;DHT22;46902;52.920;6.536;2022-10-31T08:47:38;12.20;99.90
61016;DHT22;46902;52.920;6.536;2022-10-31T08:50:04;12.30;99.90
61016;DHT22;46902;52.920;6.536;2022-10-31T08:52:29;12.30;99.90
61016;DHT22;46902;52.920;6.536;2022-10-31T08:54:55;12.30;99.90
61016;DHT22;46902;52.920;6.536;2022-10-31T08:57:20;12.40;99.90
61016;DHT22;46902;52.920;6.536;2022-10-31T08:59:46;12.40;99.90
61016;DHT22;46902;52.920;6.536;2022-10-31T09:02:11;12.40;99.90
61016;DHT22;46902;52.920;6.536;2022-10-31T09:04:37;12.50;99.90
61016;DHT22;46902;52.920;6.536;2022-10-31T09:07:03;12.50;99.90
61016;DHT22;46902;52.920;6.536;2022-10-31T09:09:28;12.60;99.90
61016;DHT22;46902;52.920;6.536;2022-10-31T09:11:54;12.70;99.90
61016;DHT22;46902;52.920;6.536;2022-10-31T09:14:19;12.70;99.90
61016;DHT22;46902;52.920;6.536;2022-10-31T09:16:45;12.70;99.90
61016;DHT22;46902;52.920;6.536;2022-10-31T09:19:10;12.70;99.90
61016;DHT22;46902;52.920;6.536;2022-10-31T09:21:36;12.80;99.90
61016;DHT22;46902;52.920;6.536;2022-10-31T09:24:01;12.90;99.90
61016;DHT22;46902;52.920;6.536;2022-10-31T09:26:27;13.00;99.90
61016;DHT22;46902;52.920;6.536;2022-10-31T09:28:52;13.10;99.90
61016;DHT22;46902;52.920;6.536;2022-10-31T09:31:18;13.10;99.90
61016;DHT22;46902;52.920;6.536;2022-10-31T09:33:43;13.10;99.90
61016;DHT22;46902;52.920;6.536;2022-10-31T09:36:09;13.20;99.90
61016;DHT22;46902;52.920;6.536;2022-10-31T09:38:34;13.10;99.90
61016;DHT22;46902;52.920;6.536;2022-10-31T09:41:27;13.10;99.90
61016;DHT22;46902;52.920;6.536;2022-10-31T09:44:18;13.10;99.90
61016;DHT22;46902;52.920;6.536;2022-10-31T09:50:02;13.10;99.90
61016;DHT22;46902;52.920;6.536;2022-10-31T09:52:34;13.10;99.90
61016;DHT22;46902;52.920;6.536;2022-10-31T09:55:21;13.20;99.90
61016;DHT22;46902;52.920;6.536;2022-10-31T09:57:49;13.30;99.90
61016;DHT22;46902;52.920;6.536;2022-10-31T10:00:18;13.40;99.90
61016;DHT22;46902;52.920;6.536;2022-10-31T10:05:19;13.50;99.90
61016;DHT22;46902;52.920;6.536;2022-10-31T10:08:00;13.50;99.90
61016;DHT22;46902;52.920;6.536;2022-10-31T10:10:32;13.50;99.90
61016;DHT22;46902;52.920;6.536;2022-10-31T10:18:38;13.60;99.90
61016;DHT22;46902;52.920;6.536;2022-10-31T10:21:16;13.60;99.90
61016;DHT22;46902;52.920;6.536;2022-10-31T10:26:56;13.80;99.90
61016;DHT22;46902;52.920;6.536;2022-10-31T10:29:39;13.80;99.90
61016;DHT22;46902;52.920;6.536;2022-10-31T10:32:13;13.90;99.90
61016;DHT22;46902;52.920;6.536;2022-10-31T10:34:47;14.00;99.90
61016;DHT22;46902;52.920;6.536;2022-10-31T10:37:27;14.10;99.90
61016;DHT22;46902;52.920;6.536;2022-10-31T10:40:06;14.20;99.90
61016;DHT22;46902;52.920;6.536;2022-10-31T10:42:33;14.20;99.90
61016;DHT22;46902;52.920;6.536;2022-10-31T10:45:20;14.40;99.90
61016;DHT22;46902;52.920;6.536;2022-10-31T10:50:44;14.60;99.90
61016;DHT22;46902;52.920;6.536;2022-10-31T10:53:40;14.80;99.90
61016;DHT22;46902;52.920;6.536;2022-10-31T10:56:39;14.90;99.90
61016;DHT22;46902;52.920;6.536;2022-10-31T10:59:11;15.40;99.90
61016;DHT22;46902;52.920;6.536;2022-10-31T11:01:39;16.10;99.90
61016;DHT22;46902;52.920;6.536;2022-10-31T11:04:21;16.60;99.90
61016;DHT22;46902;52.920;6.536;2022-10-31T11:07:09;16.90;99.90
61016;DHT22;46902;52.920;6.536;2022-10-31T11:09:36;17.40;99.90
61016;DHT22;46902;52.920;6.536;2022-10-31T11:12:57;17.70;99.90
61016;DHT22;46902;52.920;6.536;2022-10-31T11:14:59;17.90;99.90
61016;DHT22;46902;52.920;6.536;2022-10-31T11:17:32;18.00;99.90
61016;DHT22;46902;52.920;6.536;2022-10-31T11:22:47;18.00;99.90
61016;DHT22;46902;52.920;6.536;2022-10-31T11:27:58;17.90;99.90
61016;DHT22;46902;52.920;6.536;2022-10-31T11:30:23;17.60;99.90
61016;DHT22;46902;52.920;6.536;2022-10-31T11:32:50;17.30;99.90
61016;DHT22;46902;52.920;6.536;2022-10-31T11:35:20;17.10;99.90
61016;DHT22;46902;52.920;6.536;2022-10-31T11:37:50;16.90;99.90
61016;DHT22;46902;52.920;6.536;2022-10-31T11:40:18;16.70;99.90
61016;DHT22;46902;52.920;6.536;2022-10-31T11:42:44;16.60;99.90
61016;DHT22;46902;52.920;6.536;2022-10-31T11:47:50;16.50;99.90
61016;DHT22;46902;52.920;6.536;2022-10-31T11:50:21;16.40;99.90
61016;DHT22;46902;52.920;6.536;2022-10-31T11:52:48;16.40;99.90
61016;DHT22;46902;52.920;6.536;2022-10-31T11:55:32;16.30;99.90
61016;DHT22;46902;52.920;6.536;2022-10-31T11:57:59;16.20;99.90
61016;DHT22;46902;52.920;6.536;2022-10-31T12:00:38;16.20;99.90
61016;DHT22;46902;52.920;6.536;2022-10-31T12:06:01;16.40;99.90
61016;DHT22;46902;52.920;6.536;2022-10-31T12:08:33;16.30;99.90
61016;DHT22;46902;52.920;6.536;2022-10-31T12:19:59;16.20;99.90
61016;DHT22;46902;52.920;6.536;2022-10-31T12:28:12;16.50;99.90
61016;DHT22;46902;52.920;6.536;2022-10-31T12:31:10;16.40;99.90
61016;DHT22;46902;52.920;6.536;2022-10-31T12:36:29;16.40;99.90
61016;DHT22;46902;52.920;6.536;2022-10-31T12:52:46;16.50;99.90
61016;DHT22;46902;52.920;6.536;2022-10-31T12:58:20;16.30;99.90
61016;DHT22;46902;52.920;6.536;2022-10-31T13:00:49;16.30;99.90
61016;DHT22;46902;52.920;6.536;2022-10-31T13:03:27;16.30;99.90
61016;DHT22;46902;52.920;6.536;2022-10-31T13:05:58;16.40;99.90
61016;DHT22;46902;52.920;6.536;2022-10-31T13:08:38;16.60;99.90
61016;DHT22;46902;52.920;6.536;2022-10-31T13:11:22;17.00;99.90
61016;DHT22;46902;52.920;6.536;2022-10-31T13:14:00;17.40;99.90
61016;DHT22;46902;52.920;6.536;2022-10-31T13:16:35;17.90;99.90
61016;DHT22;46902;52.920;6.536;2022-10-31T13:19:10;18.20;99.90
61016;DHT22;46902;52.920;6.536;2022-10-31T13:22:08;18.50;99.90
61016;DHT22;46902;52.920;6.536;2022-10-31T13:24:47;18.80;99.90
61016;DHT22;46902;52.920;6.536;2022-10-31T13:27:25;18.70;99.90
61016;DHT22;46902;52.920;6.536;2022-10-31T13:32:19;18.20;99.90
61016;DHT22;46902;52.920;6.536;2022-10-31T13:34:52;18.10;99.90
61016;DHT22;46902;52.920;6.536;2022-10-31T13:40:58;17.80;99.90
61016;DHT22;46902;52.920;6.536;2022-10-31T13:43:30;17.70;99.90
61016;DHT22;46902;52.920;6.536;2022-10-31T13:45:58;17.60;99.90
61016;DHT22;46902;52.920;6.536;2022-10-31T13:48:39;17.60;99.90
61016;DHT22;46902;52.920;6.536;2022-10-31T13:51:12;17.60;99.90
61016;DHT22;46902;52.920;6.536;2022-10-31T13:56:27;17.40;99.90
61016;DHT22;46902;52.920;6.536;2022-10-31T13:59:02;17.30;99.90
61016;DHT22;46902;52.920;6.536;2022-10-31T14:01:28;17.20;99.90
61016;DHT22;46902;52.920;6.536;2022-10-31T14:04:02;17.10;99.90
61016;DHT22;46902;52.920;6.536;2022-10-31T14:06:57;17.00;99.90
61016;DHT22;46902;52.920;6.536;2022-10-31T14:09:30;16.90;99.90
61016;DHT22;46902;52.920;6.536;2022-10-31T14:12:00;16.80;99.90
61016;DHT22;46902;52.920;6.536;2022-10-31T14:14:32;16.80;99.90
61016;DHT22;46902;52.920;6.536;2022-10-31T14:16:59;16.70;99.90
61016;DHT22;46902;52.920;6.536;2022-10-31T14:19:25;16.70;99.90
61016;DHT22;46902;52.920;6.536;2022-10-31T14:21:51;16.70;99.90
61016;DHT22;46902;52.920;6.536;2022-10-31T14:29:27;16.70;99.90
61016;DHT22;46902;52.920;6.536;2022-10-31T14:34:27;16.70;99.90
61016;DHT22;46902;52.920;6.536;2022-10-31T14:43:09;16.60;99.90
61016;DHT22;46902;52.920;6.536;2022-10-31T14:45:55;16.50;99.90
61016;DHT22;46902;52.920;6.536;2022-10-31T14:48:48;16.50;99.90
61016;DHT22;46902;52.920;6.536;2022-10-31T14:51:21;16.40;99.90
61016;DHT22;46902;52.920;6.536;2022-10-31T14:53:53;16.30;99.90
61016;DHT22;46902;52.920;6.536;2022-10-31T14:56:28;16.30;99.90
61016;DHT22;46902;52.920;6.536;2022-10-31T14:59:11;16.30;99.90
61016;DHT22;46902;52.920;6.536;2022-10-31T15:01:39;16.20;99.90
61016;DHT22;46902;52.920;6.536;2022-10-31T15:04:17;16.10;99.90
61016;DHT22;46902;52.920;6.536;2022-10-31T15:07:12;16.10;99.90
61016;DHT22;46902;52.920;6.536;2022-10-31T15:09:36;16.10;99.90
61016;DHT22;46902;52.920;6.536;2022-10-31T15:12:24;16.10;99.90
61016;DHT22;46902;52.920;6.536;2022-10-31T15:14:50;16.10;99.90
61016;DHT22;46902;52.920;6.536;2022-10-31T15:17:17;16.00;99.90
61016;DHT22;46902;52.920;6.536;2022-10-31T15:19:43;16.00;99.90
61016;DHT22;46902;52.920;6.536;2022-10-31T15:22:16;16.00;99.90
61016;DHT22;46902;52.920;6.536;2022-10-31T15:24:43;15.90;99.90
61016;DHT22;46902;52.920;6.536;2022-10-31T15:27:17;15.90;99.90
61016;DHT22;46902;52.920;6.536;2022-10-31T15:32:23;15.80;99.90
61016;DHT22;46902;52.920;6.536;2022-10-31T15:34:51;15.80;99.90
61016;DHT22;46902;52.920;6.536;2022-10-31T15:37:20;15.70;99.90
61016;DHT22;46902;52.920;6.536;2022-10-31T15:39:47;15.70;99.90
61016;DHT22;46902;52.920;6.536;2022-10-31T15:44:43;15.60;99.90
61016;DHT22;46902;52.920;6.536;2022-10-31T15:47:17;15.60;99.90
61016;DHT22;46902;52.920;6.536;2022-10-31T15:49:55;15.50;99.90
61016;DHT22;46902;52.920;6.536;2022-10-31T15:52:43;15.50;99.90
61016;DHT22;46902;52.920;6.536;2022-10-31T15:57:39;15.40;99.90
61016;DHT22;46902;52.920;6.536;2022-10-31T16:00:20;15.30;99.90
61016;DHT22;46902;52.920;6.536;2022-10-31T16:02:46;15.30;99.90
61016;DHT22;46902;52.920;6.536;2022-10-31T16:05:16;15.20;99.90
61016;DHT22;46902;52.920;6.536;2022-10-31T16:07:48;15.20;99.90
61016;DHT22;46902;52.920;6.536;2022-10-31T16:10:22;15.20;99.90
61016;DHT22;46902;52.920;6.536;2022-10-31T16:12:48;15.00;99.90
61016;DHT22;46902;52.920;6.536;2022-10-31T16:15:15;15.00;99.90
61016;DHT22;46902;52.920;6.536;2022-10-31T16:17:46;15.00;99.90
61016;DHT22;46902;52.920;6.536;2022-10-31T16:20:22;14.90;99.90
61016;DHT22;46902;52.920;6.536;2022-10-31T16:22:51;14.90;99.90
61016;DHT22;46902;52.920;6.536;2022-10-31T16:25:34;14.90;99.90
61016;DHT22;46902;52.920;6.536;2022-10-31T16:28:04;14.90;99.90
61016;DHT22;46902;52.920;6.536;2022-10-31T16:30:39;14.80;99.90
61016;DHT22;46902;52.920;6.536;2022-10-31T16:33:27;14.70;99.90
61016;DHT22;46902;52.920;6.536;2022-10-31T16:35:56;14.80;99.90
61016;DHT22;46902;52.920;6.536;2022-10-31T16:38:22;14.70;99.90
61016;DHT22;46902;52.920;6.536;2022-10-31T16:40:49;14.70;99.90
61016;DHT22;46902;52.920;6.536;2022-10-31T16:43:17;14.70;99.90
61016;DHT22;46902;52.920;6.536;2022-10-31T16:45:49;14.70;99.90
61016;DHT22;46902;52.920;6.536;2022-10-31T16:48:20;14.70;99.90
61016;DHT22;46902;52.920;6.536;2022-10-31T16:50:47;14.70;99.90
61016;DHT22;46902;52.920;6.536;2022-10-31T16:53:14;14.70;99.90
61016;DHT22;46902;52.920;6.536;2022-10-31T16:55:55;14.70;99.90
61016;DHT22;46902;52.920;6.536;2022-10-31T16:58:24;14.70;99.90
61016;DHT22;46902;52.920;6.536;2022-10-31T17:00:50;14.70;99.90
61016;DHT22;46902;52.920;6.536;2022-10-31T17:03:16;14.70;99.90
61016;DHT22;46902;52.920;6.536;2022-10-31T17:05:42;14.70;99.90
61016;DHT22;46902;52.920;6.536;2022-10-31T17:08:08;14.70;99.90
61016;DHT22;46902;52.920;6.536;2022-10-31T17:10:34;14.70;99.90
61016;DHT22;46902;52.920;6.536;2022-10-31T17:13:00;14.70;99.90
61016;DHT22;46902;52.920;6.536;2022-10-31T17:15:28;14.60;99.90
61016;DHT22;46902;52.920;6.536;2022-10-31T17:17:55;14.60;99.90
61016;DHT22;46902;52.920;6.536;2022-10-31T17:20:27;14.60;99.90
61016;DHT22;46902;52.920;6.536;2022-10-31T17:22:54;14.60;99.90
61016;DHT22;46902;52.920;6.536;2022-10-31T17:25:22;14.60;99.90
61016;DHT22;46902;52.920;6.536;2022-10-31T17:27:48;14.60;99.90
61016;DHT22;46902;52.920;6.536;2022-10-31T17:30:15;14.60;99.90
61016;DHT22;46902;52.920;6.536;2022-10-31T17:32:43;14.60;99.90
61016;DHT22;46902;52.920;6.536;2022-10-31T17:35:09;14.60;99.90
61016;DHT22;46902;52.920;6.536;2022-10-31T17:37:35;14.60;99.90
61016;DHT22;46902;52.920;6.536;2022-10-31T17:40:01;14.60;99.90
61016;DHT22;46902;52.920;6.536;2022-10-31T17:42:26;14.60;99.90
61016;DHT22;46902;52.920;6.536;2022-10-31T17:44:52;14.60;99.90
61016;DHT22;46902;52.920;6.536;2022-10-31T17:47:17;14.60;99.90